Time;durP1;ratioP1;P1;durP2;ratioP2;P2;SDS_P1;SDS_P2;PMS_P1;PMS_P2;Temp;Humidity;BMP_temperature;BMP_pressure;BME280_temperature;BME280_humidity;BME280_pressure;Samples;Min_cycle;Max_cycle;Signal;HPM_P1;HPM_P2
2024/02/16 00:37:12;;;;;;;;;;;11.60;99.90;;;;;;5554525;23;20262;-79
2024/02/16 00:39:40;;;;;;;;;;;11.60;99.90;;;;;;5001813;28;20415;-79
2024/02/16 00:42:05;;;;;;;;;;;11.60;99.90;;;;;;4997164;28;19975;-79
2024/02/16 00:44:33;;;;;;;;;;;11.60;99.90;;;;;;5012528;28;20384;-79
2024/02/16 00:46:59;;;;;;;;;;;11.60;99.90;;;;;;4998674;28;19929;-79
2024/02/16 00:49:25;;;;;;;;;;;11.60;99.90;;;;;;4998798;28;19976;-79
2024/02/16 00:51:51;;;;;;;;;;;11.60;99.90;;;;;;4989999;28;19917;-79
2024/02/16 00:54:17;;;;;;;;;;;11.50;99.90;;;;;;4999256;28;20231;-79
2024/02/16 00:56:44;;;;;;;;;;;11.50;99.90;;;;;;5015489;28;19972;-78
2024/02/16 00:59:09;;;;;;;;;;;11.50;99.90;;;;;;4997210;28;20338;-79
2024/02/16 01:01:41;;;;;;;;;;;11.50;99.90;;;;;;5023283;28;19957;-79
2024/02/16 01:04:09;;;;;;;;;;;11.50;99.90;;;;;;4994980;28;19917;-78
2024/02/16 01:06:36;;;;;;;;;;;11.50;99.90;;;;;;5029666;28;19912;-79
2024/02/16 01:09:02;;;;;;;;;;;11.50;99.90;;;;;;5001631;28;20597;-78
2024/02/16 01:11:28;;;;;;;;;;;11.50;99.90;;;;;;4984397;28;19924;-79
2024/02/16 01:13:53;;;;;;;;;;;11.40;99.90;;;;;;5002013;28;19913;-78
2024/02/16 01:16:19;;;;;;;;;;;11.40;99.90;;;;;;4998203;28;19997;-79
2024/02/16 01:18:44;;;;;;;;;;;11.40;99.90;;;;;;4992343;28;19917;-78
2024/02/16 01:21:11;;;;;;;;;;;11.40;99.90;;;;;;5017409;28;19939;-78
2024/02/16 01:23:36;;;;;;;;;;;11.40;99.90;;;;;;5000999;28;19920;-79
2024/02/16 01:26:03;;;;;;;;;;;11.40;99.90;;;;;;5017282;28;19917;-78
2024/02/16 01:28:29;;;;;;;;;;;11.40;99.90;;;;;;5000554;28;20388;-78
2024/02/16 01:30:56;;;;;;;;;;;11.40;99.90;;;;;;5033837;28;19996;-78
2024/02/16 01:33:22;;;;;;;;;;;11.40;99.90;;;;;;4998994;28;19917;-78
2024/02/16 01:35:48;;;;;;;;;;;11.40;99.90;;;;;;4997465;28;19929;-79
2024/02/16 01:38:21;;;;;;;;;;;11.40;99.90;;;;;;4984901;28;20539;-79
2024/02/16 01:40:46;;;;;;;;;;;11.40;99.90;;;;;;5000313;28;19914;-78
2024/02/16 01:43:12;;;;;;;;;;;11.30;99.90;;;;;;5016933;28;19921;-78
2024/02/16 01:45:39;;;;;;;;;;;11.30;99.90;;;;;;4999228;28;20024;-78
2024/02/16 01:48:05;;;;;;;;;;;11.30;99.90;;;;;;4997911;28;19925;-78
2024/02/16 01:50:30;;;;;;;;;;;11.30;99.90;;;;;;4989748;28;19912;-79
2024/02/16 01:52:56;;;;;;;;;;;11.20;99.90;;;;;;4992682;28;19918;-78
2024/02/16 01:55:22;;;;;;;;;;;11.20;99.90;;;;;;5000035;28;20250;-79
2024/02/16 01:57:48;;;;;;;;;;;11.10;99.90;;;;;;5000054;28;19917;-78
2024/02/16 02:00:17;;;;;;;;;;;11.10;99.90;;;;;;5016321;28;19987;-79
2024/02/16 02:02:44;;;;;;;;;;;11.10;99.90;;;;;;5017653;28;19917;-79
2024/02/16 02:05:09;;;;;;;;;;;11.20;99.90;;;;;;5000835;28;20286;-78
2024/02/16 02:07:35;;;;;;;;;;;11.20;99.90;;;;;;5017078;28;19913;-78
2024/02/16 02:10:01;;;;;;;;;;;11.20;99.90;;;;;;5034377;28;19975;-78
2024/02/16 02:12:27;;;;;;;;;;;11.20;99.90;;;;;;5020416;28;19917;-79
2024/02/16 02:14:53;;;;;;;;;;;11.20;99.90;;;;;;5038283;28;20349;-79
2024/02/16 02:17:18;;;;;;;;;;;11.20;99.90;;;;;;5020434;28;20302;-79
2024/02/16 02:19:47;;;;;;;;;;;11.20;99.90;;;;;;4984148;28;19920;-78
2024/02/16 02:22:17;;;;;;;;;;;11.20;99.90;;;;;;4973557;28;19933;-78
2024/02/16 02:24:43;;;;;;;;;;;11.10;99.90;;;;;;4983779;28;20250;-78
2024/02/16 02:27:10;;;;;;;;;;;11.10;99.90;;;;;;5002316;28;19928;-79
2024/02/16 02:29:37;;;;;;;;;;;11.20;99.90;;;;;;5037634;28;19917;-78
2024/02/16 02:32:02;;;;;;;;;;;11.10;99.90;;;;;;5020089;28;19917;-78
2024/02/16 02:34:28;;;;;;;;;;;11.10;99.90;;;;;;5004045;28;20015;-78
2024/02/16 02:36:54;;;;;;;;;;;11.10;99.90;;;;;;5037553;28;20027;-79
2024/02/16 02:39:19;;;;;;;;;;;11.00;99.90;;;;;;5003849;28;19913;-78
2024/02/16 02:41:45;;;;;;;;;;;11.00;99.90;;;;;;4984280;28;19918;-78
2024/02/16 02:44:11;;;;;;;;;;;11.00;99.90;;;;;;5008209;28;19913;-78
2024/02/16 02:46:37;;;;;;;;;;;10.90;99.90;;;;;;5003501;28;19913;-78
2024/02/16 02:49:03;;;;;;;;;;;10.90;99.90;;;;;;4987336;28;19917;-79
2024/02/16 02:51:29;;;;;;;;;;;10.90;99.90;;;;;;5003832;28;20330;-78
2024/02/16 02:53:55;;;;;;;;;;;10.90;99.90;;;;;;5019175;28;19917;-78
2024/02/16 02:56:20;;;;;;;;;;;10.90;99.90;;;;;;4986234;28;20016;-78
2024/02/16 02:58:46;;;;;;;;;;;10.90;99.90;;;;;;4986877;28;20356;-78
2024/02/16 03:01:13;;;;;;;;;;;10.90;99.90;;;;;;5019563;28;20257;-78
2024/02/16 03:03:40;;;;;;;;;;;10.80;99.90;;;;;;4999894;28;19921;-78
2024/02/16 03:06:07;;;;;;;;;;;10.80;99.90;;;;;;5000068;28;20008;-78
2024/02/16 03:08:32;;;;;;;;;;;10.80;99.90;;;;;;5020406;28;19927;-78
2024/02/16 03:11:00;;;;;;;;;;;10.80;99.90;;;;;;5018800;28;19921;-79
2024/02/16 03:13:26;;;;;;;;;;;10.80;99.90;;;;;;5018444;28;19924;-79
2024/02/16 03:15:52;;;;;;;;;;;10.80;99.90;;;;;;5018162;28;19917;-79
2024/02/16 03:18:19;;;;;;;;;;;10.70;99.90;;;;;;5001969;28;20293;-80
2024/02/16 03:20:48;;;;;;;;;;;10.70;99.90;;;;;;4985515;28;19917;-80
2024/02/16 03:23:14;;;;;;;;;;;10.70;99.90;;;;;;4982488;28;20254;-79
2024/02/16 03:25:40;;;;;;;;;;;10.70;99.90;;;;;;5001728;28;19923;-78
2024/02/16 03:28:05;;;;;;;;;;;10.70;99.90;;;;;;5001758;28;20330;-78
2024/02/16 03:30:31;;;;;;;;;;;10.60;99.90;;;;;;5017265;28;20301;-79
2024/02/16 03:32:57;;;;;;;;;;;10.60;99.90;;;;;;4985708;28;19917;-78
2024/02/16 03:35:25;;;;;;;;;;;10.60;99.90;;;;;;5008826;28;19921;-79
2024/02/16 03:37:51;;;;;;;;;;;10.60;99.90;;;;;;4982280;28;19925;-78
2024/02/16 03:40:18;;;;;;;;;;;10.60;99.90;;;;;;4992928;28;19929;-78
2024/02/16 03:42:43;;;;;;;;;;;10.60;99.90;;;;;;4998472;28;19921;-78
2024/02/16 03:45:09;;;;;;;;;;;10.60;99.90;;;;;;4983244;28;19925;-78
2024/02/16 03:47:35;;;;;;;;;;;10.60;99.90;;;;;;4967206;28;19920;-79
2024/02/16 03:50:01;;;;;;;;;;;10.60;99.90;;;;;;5023266;28;20380;-78
2024/02/16 03:52:27;;;;;;;;;;;10.60;99.90;;;;;;4985823;28;19917;-78
2024/02/16 03:54:52;;;;;;;;;;;10.60;99.90;;;;;;5001917;28;19958;-78
2024/02/16 03:57:18;;;;;;;;;;;10.60;99.90;;;;;;5018594;28;19921;-79
2024/02/16 03:59:43;;;;;;;;;;;10.70;99.90;;;;;;5002530;28;19917;-79
2024/02/16 04:02:09;;;;;;;;;;;10.70;99.90;;;;;;5016309;28;19917;-78
2024/02/16 04:04:37;;;;;;;;;;;10.70;99.90;;;;;;4997494;28;20290;-79
2024/02/16 04:07:02;;;;;;;;;;;10.70;99.90;;;;;;4998461;28;20012;-79
2024/02/16 04:09:28;;;;;;;;;;;10.60;99.90;;;;;;4975818;28;20325;-78
2024/02/16 04:11:54;;;;;;;;;;;10.70;99.90;;;;;;5028620;28;19924;-78
2024/02/16 04:14:19;;;;;;;;;;;10.70;99.90;;;;;;5018370;28;19917;-78
2024/02/16 04:16:45;;;;;;;;;;;10.70;99.90;;;;;;4985663;28;19940;-78
2024/02/16 04:19:11;;;;;;;;;;;10.70;99.90;;;;;;5018069;28;19913;-78
2024/02/16 04:21:36;;;;;;;;;;;10.70;99.90;;;;;;4986247;28;19947;-79
2024/02/16 04:24:03;;;;;;;;;;;10.70;99.90;;;;;;5001759;28;19979;-79
2024/02/16 04:26:28;;;;;;;;;;;10.80;99.90;;;;;;5017939;28;19999;-79
2024/02/16 04:28:54;;;;;;;;;;;10.80;99.90;;;;;;5018691;28;20317;-79
2024/02/16 04:31:20;;;;;;;;;;;10.70;99.90;;;;;;5008378;28;19975;-79
2024/02/16 04:33:45;;;;;;;;;;;10.70;99.90;;;;;;4968306;28;19966;-79
2024/02/16 04:36:11;;;;;;;;;;;10.80;99.90;;;;;;4965961;28;19957;-79
2024/02/16 04:38:36;;;;;;;;;;;10.80;99.90;;;;;;4998814;28;19956;-79
2024/02/16 04:41:04;;;;;;;;;;;10.80;99.90;;;;;;4982212;28;20013;-79
2024/02/16 04:43:30;;;;;;;;;;;10.80;99.90;;;;;;4984136;28;20261;-79
2024/02/16 04:45:56;;;;;;;;;;;10.80;99.90;;;;;;4981452;28;19924;-79
2024/02/16 04:48:21;;;;;;;;;;;10.80;99.90;;;;;;4996397;28;19917;-79
2024/02/16 04:50:47;;;;;;;;;;;10.80;99.90;;;;;;4997905;28;20227;-79
2024/02/16 04:53:13;;;;;;;;;;;10.80;99.90;;;;;;4981741;28;19913;-79
2024/02/16 04:55:38;;;;;;;;;;;10.90;99.90;;;;;;4981299;28;19978;-79
2024/02/16 04:58:09;;;;;;;;;;;10.90;99.90;;;;;;4981273;28;19924;-79
2024/02/16 05:00:35;;;;;;;;;;;10.90;99.90;;;;;;4997615;28;19925;-79
2024/02/16 05:03:01;;;;;;;;;;;10.90;99.90;;;;;;5013989;28;19932;-80
2024/02/16 05:05:26;;;;;;;;;;;10.90;99.90;;;;;;5000430;28;19917;-80
2024/02/16 05:07:52;;;;;;;;;;;11.00;99.90;;;;;;5016849;28;20006;-80
2024/02/16 05:10:19;;;;;;;;;;;11.00;99.90;;;;;;5034214;28;19932;-80
2024/02/16 05:12:45;;;;;;;;;;;11.00;99.90;;;;;;5017233;28;19917;-80
2024/02/16 05:15:13;;;;;;;;;;;11.00;99.90;;;;;;5000634;28;19920;-80
2024/02/16 05:17:39;;;;;;;;;;;10.90;99.90;;;;;;5016881;28;19928;-80
2024/02/16 05:20:14;;;;;;;;;;;11.00;99.90;;;;;;4999790;28;19913;-80
2024/02/16 05:22:45;;;;;;;;;;;11.00;99.90;;;;;;4984351;28;20364;-80
2024/02/16 05:25:14;;;;;;;;;;;11.00;99.90;;;;;;4996607;28;20321;-80
2024/02/16 05:27:40;;;;;;;;;;;11.00;99.90;;;;;;4990215;28;19949;-79
2024/02/16 05:30:07;;;;;;;;;;;11.10;99.90;;;;;;4981027;28;20372;-79
2024/02/16 05:32:34;;;;;;;;;;;11.10;99.90;;;;;;5000149;28;19928;-80
2024/02/16 05:35:03;;;;;;;;;;;11.10;99.90;;;;;;5000105;28;19922;-79
2024/02/16 05:37:32;;;;;;;;;;;11.10;99.90;;;;;;5015307;28;20007;-79
2024/02/16 05:40:08;;;;;;;;;;;11.10;99.90;;;;;;4999576;28;19945;-80
2024/02/16 05:42:35;;;;;;;;;;;11.10;99.90;;;;;;5002384;28;19917;-80
2024/02/16 05:45:00;;;;;;;;;;;11.10;99.90;;;;;;4973579;28;19927;-80
2024/02/16 05:47:27;;;;;;;;;;;11.10;99.90;;;;;;4990643;28;19918;-80
2024/02/16 05:49:53;;;;;;;;;;;11.10;99.90;;;;;;5012705;28;19972;-80
2024/02/16 05:52:19;;;;;;;;;;;11.20;99.90;;;;;;5020097;28;20016;-80
2024/02/16 05:54:45;;;;;;;;;;;11.20;99.90;;;;;;5030185;28;19917;-80
2024/02/16 05:57:13;;;;;;;;;;;11.20;99.90;;;;;;5002812;28;19913;-80
2024/02/16 05:59:39;;;;;;;;;;;11.20;99.90;;;;;;5036059;28;19917;-80
2024/02/16 06:02:05;;;;;;;;;;;11.20;99.90;;;;;;4985293;28;19924;-80
2024/02/16 06:04:31;;;;;;;;;;;11.20;99.90;;;;;;4989734;28;19945;-79
2024/02/16 06:06:57;;;;;;;;;;;11.30;99.90;;;;;;4997832;28;19913;-80
2024/02/16 06:09:22;;;;;;;;;;;11.30;99.90;;;;;;5012352;28;19913;-80
2024/02/16 06:11:49;;;;;;;;;;;11.30;99.90;;;;;;5032683;28;19921;-80
2024/02/16 06:14:15;;;;;;;;;;;11.30;99.90;;;;;;5013307;28;19917;-80
2024/02/16 06:16:42;;;;;;;;;;;11.30;99.90;;;;;;5010915;28;20249;-80
2024/02/16 06:19:10;;;;;;;;;;;11.30;99.90;;;;;;5009523;28;19913;-80
2024/02/16 06:21:36;;;;;;;;;;;11.40;99.90;;;;;;5027613;28;20348;-80
2024/02/16 06:24:02;;;;;;;;;;;11.40;99.90;;;;;;4990990;28;19920;-80
2024/02/16 06:26:31;;;;;;;;;;;11.40;99.90;;;;;;5004487;28;19921;-80
2024/02/16 06:28:58;;;;;;;;;;;11.40;99.90;;;;;;5013076;28;19921;-79
2024/02/16 06:31:26;;;;;;;;;;;11.40;99.90;;;;;;4987972;28;19923;-80
2024/02/16 06:33:51;;;;;;;;;;;11.50;99.90;;;;;;4987406;28;19913;-80
2024/02/16 06:36:17;;;;;;;;;;;11.40;99.90;;;;;;5019892;28;19924;-80
2024/02/16 06:38:43;;;;;;;;;;;11.40;99.90;;;;;;4993133;28;19917;-80
2024/02/16 06:41:08;;;;;;;;;;;11.50;99.90;;;;;;4996931;28;19983;-80
2024/02/16 06:43:34;;;;;;;;;;;11.50;99.90;;;;;;5014456;28;20603;-80
2024/02/16 06:46:00;;;;;;;;;;;11.50;99.90;;;;;;5013882;28;20608;-80
2024/02/16 06:48:28;;;;;;;;;;;11.50;99.90;;;;;;5007028;28;19913;-80
2024/02/16 06:50:54;;;;;;;;;;;11.50;99.90;;;;;;5005898;28;19913;-80
2024/02/16 06:53:20;;;;;;;;;;;11.50;99.90;;;;;;5042380;28;19913;-79
2024/02/16 06:55:50;;;;;;;;;;;11.50;99.90;;;;;;4993426;28;20326;-80
2024/02/16 06:58:15;;;;;;;;;;;11.50;99.90;;;;;;4992788;28;20291;-80
2024/02/16 07:00:42;;;;;;;;;;;11.50;99.90;;;;;;5006316;28;19940;-80
2024/02/16 07:03:08;;;;;;;;;;;11.50;99.90;;;;;;5018296;28;19948;-80
2024/02/16 07:05:34;;;;;;;;;;;11.50;99.90;;;;;;4989269;28;20215;-80
2024/02/16 07:08:04;;;;;;;;;;;11.50;99.90;;;;;;5009284;28;19917;-80
2024/02/16 07:10:30;;;;;;;;;;;11.60;99.90;;;;;;4985776;28;19917;-80
2024/02/16 07:12:56;;;;;;;;;;;11.60;99.90;;;;;;5003316;28;19967;-80
2024/02/16 07:15:21;;;;;;;;;;;11.60;99.90;;;;;;5003939;28;19980;-80
2024/02/16 07:17:47;;;;;;;;;;;11.60;99.90;;;;;;5011004;28;19924;-80
2024/02/16 07:20:15;;;;;;;;;;;11.60;99.90;;;;;;5008757;28;19927;-80
2024/02/16 07:22:41;;;;;;;;;;;11.70;99.90;;;;;;5012491;28;19980;-80
2024/02/16 07:25:08;;;;;;;;;;;11.70;99.90;;;;;;5014219;28;20044;-80
2024/02/16 07:27:34;;;;;;;;;;;11.80;99.90;;;;;;5037846;28;20364;-80
2024/02/16 07:29:59;;;;;;;;;;;11.90;99.90;;;;;;5020292;28;19913;-80
2024/02/16 07:32:25;;;;;;;;;;;12.00;99.90;;;;;;5036050;28;19917;-80
2024/02/16 07:34:51;;;;;;;;;;;12.00;99.90;;;;;;5019317;28;19924;-80
2024/02/16 07:37:18;;;;;;;;;;;12.10;99.90;;;;;;5019693;28;19925;-80
2024/02/16 07:39:43;;;;;;;;;;;12.10;99.90;;;;;;5005470;28;19972;-80
2024/02/16 07:42:09;;;;;;;;;;;12.10;99.90;;;;;;5007190;28;20007;-80
2024/02/16 07:44:38;;;;;;;;;;;12.10;99.90;;;;;;5005987;28;19928;-80
2024/02/16 07:47:04;;;;;;;;;;;12.10;99.90;;;;;;5038230;28;19928;-80
2024/02/16 07:49:30;;;;;;;;;;;12.10;99.90;;;;;;5038099;28;19917;-80
2024/02/16 07:51:56;;;;;;;;;;;12.10;99.90;;;;;;5004859;28;20031;-80
2024/02/16 07:54:22;;;;;;;;;;;12.10;99.90;;;;;;4986493;28;19952;-80
2024/02/16 07:56:48;;;;;;;;;;;12.10;99.90;;;;;;5002846;28;20678;-80
2024/02/16 07:59:14;;;;;;;;;;;12.20;99.90;;;;;;5006127;28;19952;-80
2024/02/16 08:01:40;;;;;;;;;;;12.20;99.90;;;;;;4991001;28;19932;-80
2024/02/16 08:04:06;;;;;;;;;;;12.20;99.90;;;;;;5014835;28;19935;-80
2024/02/16 08:06:31;;;;;;;;;;;12.20;99.90;;;;;;5000777;28;19937;-80
2024/02/16 08:51:31;;;;;;;;;;;13.10;99.90;;;;;;5006503;28;19925;-81
2024/02/16 08:53:57;;;;;;;;;;;13.10;99.90;;;;;;4991333;28;19924;-81
2024/02/16 08:56:29;;;;;;;;;;;13.20;99.90;;;;;;4982318;28;20069;-81
2024/02/16 08:58:55;;;;;;;;;;;13.30;99.90;;;;;;5009808;28;19933;-82
2024/02/16 09:01:39;;;;;;;;;;;13.30;99.90;;;;;;5007993;28;20383;-82
2024/02/16 09:04:07;;;;;;;;;;;13.30;99.90;;;;;;4989826;28;19928;-81
2024/02/16 09:06:34;;;;;;;;;;;13.40;99.90;;;;;;4989283;28;19945;-81
2024/02/16 09:09:06;;;;;;;;;;;13.50;99.90;;;;;;4982658;28;19902;-82
2024/02/16 09:11:33;;;;;;;;;;;13.60;99.90;;;;;;4956387;28;20008;-81
2024/02/16 09:14:03;;;;;;;;;;;13.60;99.90;;;;;;4962471;28;19918;-81
2024/02/16 09:16:53;;;;;;;;;;;13.70;99.90;;;;;;5011027;28;19908;-83
2024/02/16 09:19:41;;;;;;;;;;;13.80;99.90;;;;;;4998545;28;19918;-82
2024/02/16 09:22:26;;;;;;;;;;;13.80;99.90;;;;;;5012768;28;19921;-83
2024/02/16 09:25:14;;;;;;;;;;;13.90;99.90;;;;;;4990758;28;19932;-78
2024/02/16 09:27:41;;;;;;;;;;;13.90;99.90;;;;;;4978617;28;19913;-78
2024/02/16 09:30:10;;;;;;;;;;;13.90;99.90;;;;;;4938230;28;19922;-78
2024/02/16 09:32:38;;;;;;;;;;;13.90;99.90;;;;;;4967306;28;20010;-78
2024/02/16 09:35:04;;;;;;;;;;;13.90;99.90;;;;;;4995231;28;19928;-79
2024/02/16 09:37:30;;;;;;;;;;;14.00;99.90;;;;;;4962549;28;19917;-79
2024/02/16 09:39:57;;;;;;;;;;;14.00;99.90;;;;;;4963028;28;19914;-79
2024/02/16 09:42:23;;;;;;;;;;;14.00;99.90;;;;;;4945521;28;19922;-79
2024/02/16 09:44:49;;;;;;;;;;;14.10;99.90;;;;;;4978334;28;19921;-78
2024/02/16 09:47:14;;;;;;;;;;;14.10;99.90;;;;;;4962846;28;19922;-78
2024/02/16 09:49:40;;;;;;;;;;;14.10;99.90;;;;;;4948952;28;19914;-78
2024/02/16 09:52:06;;;;;;;;;;;14.20;99.90;;;;;;5002180;28;19914;-78
2024/02/16 09:54:34;;;;;;;;;;;14.30;99.90;;;;;;4981923;28;20250;-79
2024/02/16 09:56:59;;;;;;;;;;;14.30;99.90;;;;;;4966397;28;19917;-79
2024/02/16 09:59:25;;;;;;;;;;;14.30;99.90;;;;;;4995979;28;20317;-79
2024/02/16 10:02:00;;;;;;;;;;;14.40;99.90;;;;;;5017740;28;19968;-79
2024/02/16 10:04:26;;;;;;;;;;;14.40;99.90;;;;;;5001624;28;20513;-79
2024/02/16 10:06:52;;;;;;;;;;;14.40;99.90;;;;;;4968884;28;20012;-79
2024/02/16 10:09:22;;;;;;;;;;;14.50;99.90;;;;;;5002339;28;19964;-79
2024/02/16 10:11:48;;;;;;;;;;;14.60;99.90;;;;;;4979201;28;19914;-79
2024/02/16 10:14:14;;;;;;;;;;;14.70;99.90;;;;;;5015949;28;19924;-79
2024/02/16 10:16:39;;;;;;;;;;;14.80;99.90;;;;;;4966152;28;19921;-79
2024/02/16 10:19:06;;;;;;;;;;;14.80;99.90;;;;;;4998506;28;19919;-79
2024/02/16 10:21:32;;;;;;;;;;;14.90;99.90;;;;;;5017672;28;20345;-79
2024/02/16 10:24:02;;;;;;;;;;;15.00;99.90;;;;;;4981941;28;19925;-79
2024/02/16 10:26:28;;;;;;;;;;;14.90;99.90;;;;;;4982102;28;19929;-78
2024/02/16 10:28:54;;;;;;;;;;;15.00;99.90;;;;;;5020898;28;19913;-79
2024/02/16 10:31:25;;;;;;;;;;;15.00;99.90;;;;;;4980689;28;19975;-79
2024/02/16 10:33:50;;;;;;;;;;;15.00;99.90;;;;;;4960076;28;20331;-78
2024/02/16 10:36:16;;;;;;;;;;;15.10;99.90;;;;;;5001356;28;19952;-78
2024/02/16 10:38:45;;;;;;;;;;;15.10;99.90;;;;;;4999735;28;20004;-78
2024/02/16 10:41:10;;;;;;;;;;;15.30;99.90;;;;;;5000870;28;19923;-79
2024/02/16 10:43:36;;;;;;;;;;;15.40;99.90;;;;;;4996099;28;19917;-78
2024/02/16 10:46:04;;;;;;;;;;;15.50;99.90;;;;;;5038116;28;19917;-79
2024/02/16 10:48:32;;;;;;;;;;;15.80;99.90;;;;;;5003527;28;19929;-78
2024/02/16 10:50:57;;;;;;;;;;;15.90;99.90;;;;;;4968166;28;19918;-79
2024/02/16 10:53:26;;;;;;;;;;;15.90;99.90;;;;;;4984382;28;19913;-79
2024/02/16 10:55:52;;;;;;;;;;;15.90;99.90;;;;;;5000618;28;19917;-79
2024/02/16 10:58:18;;;;;;;;;;;15.90;99.90;;;;;;4984733;28;20242;-79
2024/02/16 11:00:53;;;;;;;;;;;15.90;99.90;;;;;;4984537;28;20040;-77
2024/02/16 11:03:26;;;;;;;;;;;15.90;99.90;;;;;;4985358;28;20310;-78
2024/02/16 11:05:52;;;;;;;;;;;15.90;99.90;;;;;;4985483;28;19913;-78
2024/02/16 11:08:18;;;;;;;;;;;15.90;99.90;;;;;;5000866;28;19928;-78
2024/02/16 11:10:54;;;;;;;;;;;15.90;99.90;;;;;;4975980;28;20008;-79
2024/02/16 11:13:25;;;;;;;;;;;16.10;99.90;;;;;;5002975;28;19924;-78
2024/02/16 11:16:04;;;;;;;;;;;16.20;99.90;;;;;;5017445;28;19975;-79
2024/02/16 11:18:30;;;;;;;;;;;16.20;99.90;;;;;;4991532;28;20532;-80
2024/02/16 11:20:56;;;;;;;;;;;16.10;99.90;;;;;;4981958;28;19924;-79
2024/02/16 11:23:26;;;;;;;;;;;16.00;99.90;;;;;;4981807;28;19922;-79
2024/02/16 11:26:00;;;;;;;;;;;15.90;99.90;;;;;;4999147;28;19917;-80
2024/02/16 11:28:26;;;;;;;;;;;15.80;99.90;;;;;;4968822;28;20314;-80
2024/02/16 11:30:51;;;;;;;;;;;15.80;99.90;;;;;;5000753;28;19920;-80
2024/02/16 11:33:17;;;;;;;;;;;15.70;99.90;;;;;;4983972;28;19917;-80
2024/02/16 11:35:52;;;;;;;;;;;15.70;99.90;;;;;;4983621;28;19917;-79
2024/02/16 11:38:18;;;;;;;;;;;15.60;99.90;;;;;;4996468;28;20287;-80
2024/02/16 11:40:52;;;;;;;;;;;15.60;99.90;;;;;;5001301;28;19923;-80
2024/02/16 11:43:22;;;;;;;;;;;15.50;99.90;;;;;;5000625;28;19944;-79
2024/02/16 11:45:47;;;;;;;;;;;15.50;99.90;;;;;;5017150;28;20008;-80
2024/02/16 11:48:18;;;;;;;;;;;15.50;99.90;;;;;;4984055;28;19956;-79
2024/02/16 11:50:44;;;;;;;;;;;15.50;99.90;;;;;;4971408;28;20432;-79
2024/02/16 11:53:09;;;;;;;;;;;15.40;99.90;;;;;;4980962;28;19917;-79
2024/02/16 11:55:35;;;;;;;;;;;15.40;99.90;;;;;;4981064;28;19914;-79
2024/02/16 11:58:01;;;;;;;;;;;15.30;99.90;;;;;;4964924;28;19955;-79
2024/02/16 12:00:27;;;;;;;;;;;15.30;99.90;;;;;;4945626;28;20338;-80
2024/02/16 12:03:00;;;;;;;;;;;15.30;99.90;;;;;;4961643;28;19945;-79
2024/02/16 12:05:25;;;;;;;;;;;15.20;99.90;;;;;;4964496;28;19918;-79
2024/02/16 12:07:51;;;;;;;;;;;15.20;99.90;;;;;;4948598;28;19924;-79
2024/02/16 12:10:17;;;;;;;;;;;15.20;99.90;;;;;;4996856;28;19977;-79
2024/02/16 12:12:58;;;;;;;;;;;15.10;99.90;;;;;;4981974;28;20354;-78
2024/02/16 12:15:43;;;;;;;;;;;15.10;99.90;;;;;;4997799;28;19921;-79
2024/02/16 12:18:09;;;;;;;;;;;15.10;99.90;;;;;;4980895;28;19913;-79
2024/02/16 12:20:35;;;;;;;;;;;15.10;99.90;;;;;;4996944;28;19925;-79
2024/02/16 12:23:10;;;;;;;;;;;15.10;99.90;;;;;;4980398;28;19949;-79
2024/02/16 12:25:35;;;;;;;;;;;15.10;99.90;;;;;;4932010;28;19914;-79
2024/02/16 12:28:01;;;;;;;;;;;15.00;99.90;;;;;;4946400;28;19914;-79
2024/02/16 12:30:27;;;;;;;;;;;15.00;99.90;;;;;;4980560;28;20005;-79
2024/02/16 12:32:53;;;;;;;;;;;15.00;99.90;;;;;;4997010;28;19924;-78
2024/02/16 12:35:22;;;;;;;;;;;15.00;99.90;;;;;;4983082;28;19987;-78
2024/02/16 12:37:47;;;;;;;;;;;15.00;99.90;;;;;;4968907;28;19914;-78
2024/02/16 12:40:13;;;;;;;;;;;14.90;99.90;;;;;;4970567;28;19914;-79
2024/02/16 12:42:41;;;;;;;;;;;14.90;99.90;;;;;;4992279;28;20041;-78
2024/02/16 12:45:07;;;;;;;;;;;15.00;99.90;;;;;;5016053;28;19921;-78
2024/02/16 12:47:33;;;;;;;;;;;15.00;99.90;;;;;;4982549;28;19968;-78
2024/02/16 12:49:58;;;;;;;;;;;14.90;99.90;;;;;;4986601;28;19925;-78
2024/02/16 12:52:26;;;;;;;;;;;15.00;99.90;;;;;;4980972;28;19914;-78
2024/02/16 12:54:52;;;;;;;;;;;15.00;99.90;;;;;;4947549;28;19925;-78
2024/02/16 12:57:21;;;;;;;;;;;15.00;99.90;;;;;;4960912;28;19918;-78
2024/02/16 12:59:47;;;;;;;;;;;15.00;99.90;;;;;;4963244;28;19976;-77
2024/02/16 13:02:12;;;;;;;;;;;15.00;99.90;;;;;;4963573;28;20012;-79
2024/02/16 13:04:45;;;;;;;;;;;15.00;99.90;;;;;;4980060;28;20036;-78
2024/02/16 13:07:11;;;;;;;;;;;15.00;99.90;;;;;;4952077;28;20004;-78
2024/02/16 13:09:37;;;;;;;;;;;15.00;99.90;;;;;;4959010;28;20004;-75
2024/02/16 13:12:02;;;;;;;;;;;15.00;99.90;;;;;;4979206;28;19989;-75
2024/02/16 13:14:28;;;;;;;;;;;15.00;99.90;;;;;;4959546;28;19918;-75
2024/02/16 13:16:56;;;;;;;;;;;15.00;99.90;;;;;;4962531;28;19958;-75
2024/02/16 13:19:23;;;;;;;;;;;15.00;99.90;;;;;;4994492;28;19913;-75
2024/02/16 13:21:52;;;;;;;;;;;15.00;99.90;;;;;;4962637;28;20003;-75
2024/02/16 13:24:21;;;;;;;;;;;15.00;99.90;;;;;;4960928;28;19948;-75
2024/02/16 13:26:49;;;;;;;;;;;15.10;99.90;;;;;;4970170;28;20345;-75
2024/02/16 13:29:18;;;;;;;;;;;15.10;99.90;;;;;;4978909;28;19921;-75
2024/02/16 13:31:43;;;;;;;;;;;15.10;99.90;;;;;;5012493;28;19913;-74
2024/02/16 13:34:09;;;;;;;;;;;15.10;99.90;;;;;;4962245;28;19914;-74
2024/02/16 13:36:39;;;;;;;;;;;15.10;99.90;;;;;;4971935;28;20303;-75
2024/02/16 13:39:10;;;;;;;;;;;15.10;99.90;;;;;;4978821;28;19921;-75
2024/02/16 13:41:38;;;;;;;;;;;15.10;99.90;;;;;;4962251;28;19921;-76
2024/02/16 13:44:06;;;;;;;;;;;15.10;99.90;;;;;;4978372;28;19968;-76
2024/02/16 13:46:39;;;;;;;;;;;15.10;99.90;;;;;;4995256;28;19925;-76
2024/02/16 13:49:05;;;;;;;;;;;15.10;99.90;;;;;;4941828;28;19922;-75
2024/02/16 13:51:31;;;;;;;;;;;15.10;99.90;;;;;;4966453;28;19918;-75
2024/02/16 13:53:57;;;;;;;;;;;15.10;99.90;;;;;;4981173;28;19921;-75
2024/02/16 13:56:24;;;;;;;;;;;15.10;99.90;;;;;;4997635;28;19914;-76
2024/02/16 13:58:52;;;;;;;;;;;15.10;99.90;;;;;;4997356;28;19928;-77
2024/02/16 14:01:18;;;;;;;;;;;15.10;99.90;;;;;;4981338;28;19917;-76
2024/02/16 14:03:43;;;;;;;;;;;15.10;99.90;;;;;;4976136;28;20305;-79
2024/02/16 14:06:11;;;;;;;;;;;15.10;99.90;;;;;;4981291;28;20004;-79
2024/02/16 14:08:47;;;;;;;;;;;15.10;99.90;;;;;;4981897;28;20025;-79
2024/02/16 14:11:13;;;;;;;;;;;15.10;99.90;;;;;;4986803;28;20242;-77
2024/02/16 14:13:41;;;;;;;;;;;15.10;99.90;;;;;;4987665;28;19924;-77
2024/02/16 14:16:18;;;;;;;;;;;15.00;99.90;;;;;;5000902;28;19928;-75
2024/02/16 14:18:45;;;;;;;;;;;15.00;99.90;;;;;;5017973;28;19925;-80
2024/02/16 14:21:10;;;;;;;;;;;14.90;99.90;;;;;;5017935;28;19944;-77
2024/02/16 14:23:39;;;;;;;;;;;14.90;99.90;;;;;;5007874;28;19918;-76
2024/02/16 14:26:11;;;;;;;;;;;14.90;99.90;;;;;;4985435;28;19917;-76
2024/02/16 14:28:37;;;;;;;;;;;14.90;99.90;;;;;;5017266;28;19924;-76
2024/02/16 14:31:06;;;;;;;;;;;14.90;99.90;;;;;;4992561;28;20000;-77
2024/02/16 14:33:34;;;;;;;;;;;14.80;99.90;;;;;;4958000;28;19917;-77
2024/02/16 14:38:39;;;;;;;;;;;14.70;99.90;;;;;;4891533;26;19926;-79
2024/02/16 14:41:05;;;;;;;;;;;14.70;99.90;;;;;;4966017;28;20318;-79
2024/02/16 14:43:32;;;;;;;;;;;14.60;99.90;;;;;;4964281;28;19932;-80
2024/02/16 14:45:58;;;;;;;;;;;14.60;99.90;;;;;;4964775;28;19928;-80
2024/02/16 14:48:26;;;;;;;;;;;14.50;99.90;;;;;;4998476;28;19981;-78
2024/02/16 14:50:52;;;;;;;;;;;14.50;99.90;;;;;;4949503;28;19914;-79
2024/02/16 14:53:21;;;;;;;;;;;14.40;99.90;;;;;;4965246;28;19913;-79
2024/02/16 14:55:53;;;;;;;;;;;14.40;99.90;;;;;;4965252;28;20617;-80
2024/02/16 14:58:21;;;;;;;;;;;14.40;99.90;;;;;;4949778;28;20616;-79
2024/02/16 15:00:59;;;;;;;;;;;14.30;99.90;;;;;;4948857;28;20318;-79
2024/02/16 15:03:30;;;;;;;;;;;14.30;99.90;;;;;;4981171;28;19965;-79
2024/02/16 15:05:56;;;;;;;;;;;14.20;99.90;;;;;;4946796;28;19965;-80
2024/02/16 15:08:21;;;;;;;;;;;14.20;99.90;;;;;;4976581;28;19914;-80
2024/02/16 15:10:48;;;;;;;;;;;14.20;99.90;;;;;;4949232;28;20329;-79
2024/02/16 15:13:20;;;;;;;;;;;14.20;99.90;;;;;;4947671;28;19989;-79
2024/02/16 15:15:45;;;;;;;;;;;14.10;99.90;;;;;;4961663;28;19928;-79
2024/02/16 15:18:11;;;;;;;;;;;14.10;99.90;;;;;;4964046;28;20254;-79
2024/02/16 15:20:36;;;;;;;;;;;14.10;99.90;;;;;;4963853;28;20372;-79
2024/02/16 15:23:02;;;;;;;;;;;14.10;99.90;;;;;;4978154;28;20281;-78
2024/02/16 15:25:28;;;;;;;;;;;14.10;99.90;;;;;;4947909;28;20030;-78
2024/02/16 15:27:58;;;;;;;;;;;14.00;99.90;;;;;;4979694;28;19972;-79
2024/02/16 15:30:28;;;;;;;;;;;14.00;99.90;;;;;;4947619;28;20219;-76
2024/02/16 15:32:57;;;;;;;;;;;14.00;99.90;;;;;;4946108;28;19917;-79
2024/02/16 15:35:53;;;;;;;;;;;14.00;99.90;;;;;;4960989;28;19976;-79
2024/02/16 15:38:22;;;;;;;;;;;14.00;99.90;;;;;;4965292;28;20025;-79